Nearby METAR Reports

METAR is the scheduled surface weather observation taken hourly at civil and military airport locations.

METAR is an acronym from the French language and roughly translates as Aviation Routine Weather Report.

 

EGPL - Benbecula Island, United Kingdom
Distance from station: WNW 41mi, 66km
Updated: 17/08/2022 02:50
Clear
Clear
 Wind from NNE
Wind: NNE 10 mph , 17 km/h
Temperature: 8°C
Wind Chill: 5°C
Dew Point: 5°C
Humidity: 82%
Barometer: 1019 hPa
Clouds: Clear
Visibility: 6 miles , 10 km
2022/08/17 01:50 EGPL 170150Z AUTO 02009KT 9999 NCD 08/05 Q1019
EGPU - Tiree Island, United Kingdom
Distance from station: SSW 56mi, 90km
Updated: 17/08/2022 02:50
Mostly cloudy
Mostly cloudy
 Wind from NNE
Wind: NNE 10 mph , 17 km/h
Temperature: 11°C
Dew Point: 8°C
Humidity: 82%
Barometer: 1017 hPa
Clouds: Mostly cloudy
Visibility: 6 miles , 10 km
Cloud details: Mostly cloudy 853 m
2022/08/17 01:50 EGPU 170150Z AUTO 03009KT 9999 BKN028/// 11/08 Q1017
 
EGEO - Oban Airport, United Kingdom
Distance from station: SE 65mi, 105km
Updated: 16/08/2022 16:50
NOT Current
Partly cloudy
Partly cloudy
 Wind from N
Wind: N 16 mph , 26 km/h
Temperature: 16°C
Dew Point: 11°C
Humidity: 72%
Barometer: 1012 hPa
Clouds: Partly cloudy
Visibility: 6 miles , 10 km
Cloud details: Partly cloudy 701 m
2022/08/16 15:50 EGEO 161550Z 36014KT 9999 SCT023 16/11 Q1012
EGPO - Stornoway, United Kingdom
Distance from station: 0 66mi, 106km
Updated: 17/08/2022 02:50
Mostly cloudy
Mostly cloudy
 Wind from N
Wind: N 7 mph , 11 km/h
Temperature: 9°C
Wind Chill: 7°C
Dew Point: 4°C
Humidity: 71%
Barometer: 1019 hPa
Clouds: Mostly cloudy
Visibility: 6 miles , 10 km
Cloud details: Mostly cloudy 1097 m
2022/08/17 01:50 EGPO 170150Z AUTO 36006KT 9999 BKN036/// 09/04 Q1019
 
EGPE - Inverness/Dalcro, United Kingdom
Distance from station: ENE 88mi, 141km
Updated: 17/08/2022 02:50
Partly cloudy
Partly cloudy
 Wind from SSW
Wind: SSW 1 mph , 2 km/h
Temperature: 9°C
Dew Point: 7°C
Humidity: 87%
Barometer: 1019 hPa
Clouds: Partly cloudy
Visibility: 6 miles , 10 km
2022/08/17 01:50 EGPE 170150Z 20001KT 9999 NSC 09/07 Q1019
EGQA - Tain Range (saws, United Kingdom
Distance from station: ENE 97mi, 156km
Updated: 10/08/2022 11:50
NOT Current
Few Clouds
Few Clouds
 Wind from SSW
Wind: SSW 25 mph , 41 km/h
Clouds: Few Clouds
Visibility: 6 miles , 10 km
Cloud details: Few Clouds 1067 m
2022/08/10 10:50 EGQA 101050Z 21022KT 9999 FEW035 22/// Q1023 RMK BLU
 
EGQK - Kinloss Raf, United Kingdom
Distance from station: ENE 107mi, 171km
Updated: 17/08/2022 02:50
Overcast
Overcast
 Wind from NNE
Wind: NNE 10 mph , 17 km/h
Temperature: 11°C
Dew Point: 5°C
Humidity: 67%
Barometer: 1018 hPa
Clouds: Overcast
Visibility: 6 miles , 10 km
Cloud details: Overcast 1402 m
2022/08/17 01:50 EGQK 170150Z AUTO 02009KT 9999 OVC046/// 11/05 Q1018
EGPI - Islay/Port Ellen, United Kingdom
Distance from station: S 110mi, 177km
Updated: 17/08/2022 02:50
Light drizzle, Mostly cloudy
Light drizzle, Mostly cloudy
 Wind from N
Wind: N 6 mph , 9 km/h
Temperature: 12°C
Dew Point: 11°C
Humidity: 94%
Barometer: 1017 hPa
Summary: Light Drizzle
Clouds: Mostly cloudy
Visibility: 6 miles , 10 km
Cloud details: Mostly cloudy 488 m
2022/08/17 01:50 EGPI 170150Z AUTO 36005KT 220V030 9999 -DZ BKN016/// 12/11 Q1017
 
EGQS - Lossiemouth Raf, United Kingdom
Distance from station: ENE 117mi, 188km
Updated: 17/08/2022 02:50
Mostly cloudy
Mostly cloudy
 Wind from NNW
Wind: NNW 10 mph , 17 km/h
Temperature: 11°C
Dew Point: 3°C
Humidity: 58%
Barometer: 1018 hPa
Clouds: Mostly cloudy
Visibility: 6 miles , 10 km
Cloud details: Mostly cloudy 1433 m
2022/08/17 01:50 EGQS 170150Z 34009KT 9999 BKN047 11/03 Q1018 NOSIG RMK BLU BLU
EGPF - Glasgow Airport, United Kingdom
Distance from station: SE 121mi, 195km
Updated: 17/08/2022 02:50
Light rain, Overcast
Light rain, Overcast
 Wind from ENE
Wind: ENE 10 mph , 17 km/h
Temperature: 12°C
Dew Point: 10°C
Humidity: 88%
Barometer: 1017 hPa
Summary: Light rain
Clouds: Overcast
Visibility: 6 miles , 10 km
Cloud details: Overcast 640 m
2022/08/17 01:50 EGPF 170150Z AUTO 07009KT 9999 -RA OVC021 12/10 Q1017
 
EGEC - Campbeltown, United Kingdom
Distance from station: SSE 129mi, 207km
Updated: 16/08/2022 17:20
NOT Current
Overcast
Overcast
 Wind from NNW
Wind: NNW 17 mph , 28 km/h
Temperature: 15°C
Dew Point: 11°C
Humidity: 77%
Barometer: 1013 hPa
Clouds: Overcast
Visibility: 6 miles , 10 km
Cloud details: Few Clouds 914 m
Overcast 1311 m
2022/08/16 16:20 EGEC 161620Z 33015KT 9999 FEW030 OVC043 15/11 Q1013
EGPN - Dundee/Riverside, United Kingdom
Distance from station: ESE 137mi, 221km
Updated: 16/08/2022 20:50
NOT Current
Few Clouds
Few Clouds
 Wind from NE
Wind: NE 5 mph , 7 km/h
Temperature: 14°C
Dew Point: 8°C
Humidity: 67%
Barometer: 1015 hPa
Clouds: Few Clouds
Visibility: 6 miles , 10 km
Cloud details: Few Clouds 853 m
2022/08/16 19:50 EGPN 161950Z 04004KT 360V080 9999 FEW028 14/08 Q1015
 
EGPK - Prestwick(Civ/Na, United Kingdom
Distance from station: SSE 139mi, 224km
Updated: 17/08/2022 02:50
Overcast
Overcast
 Wind from NE
Wind: NE 8 mph , 13 km/h
Temperature: 13°C
Dew Point: 10°C
Humidity: 82%
Barometer: 1017 hPa
Clouds: Overcast
Visibility: 6 miles , 10 km
Cloud details: Overcast 1158 m
2022/08/17 01:50 EGPK 170150Z AUTO 05007KT 020V080 9999 OVC038/// 13/10 Q1017
EGQL - Leuchars Raf, United Kingdom
Distance from station: ESE 145mi, 233km
Updated: 17/08/2022 02:50
Overcast
Overcast
 Wind from NE
Wind: NE 8 mph , 13 km/h
Temperature: 11°C
Dew Point: 7°C
Humidity: 77%
Barometer: 1018 hPa
Clouds: Overcast
Visibility: 6 miles , 10 km
Cloud details: Overcast 1250 m
2022/08/17 01:50 EGQL 170150Z 05007KT 9999 OVC041 11/07 Q1018 RMK BLU
 
EGPH - Edinburgh Airpor, United Kingdom
Distance from station: SE 145mi, 234km
Updated: 17/08/2022 02:50
Mostly cloudy
Mostly cloudy
 Wind from E
Wind: E 12 mph , 19 km/h
Temperature: 12°C
Dew Point: 9°C
Humidity: 82%
Barometer: 1017 hPa
Clouds: Mostly cloudy
Visibility: 6 miles , 10 km
Cloud details: Mostly cloudy 518 m
2022/08/17 01:50 EGPH 170150Z 08010KT 9999 BKN017 12/09 Q1017
EGPC - Wick, United Kingdom
Distance from station: NE 146mi, 234km
Updated: 17/08/2022 02:50
Mostly cloudy
Mostly cloudy
 Wind from NNW
Wind: NNW 7 mph , 11 km/h
Temperature: 10°C
Wind Chill: 8°C
Dew Point: 6°C
Humidity: 76%
Barometer: 1019 hPa
Clouds: Mostly cloudy
Visibility: 6 miles , 10 km
Cloud details: Mostly cloudy 1341 m
2022/08/17 01:50 EGPC 170150Z AUTO 33006KT 9999 BKN044/// 10/06 Q1019

-

free counters
Scottish Weather Network UK Weather Network